Time;durP1;ratioP1;P1;durP2;ratioP2;P2;SDS_P1;SDS_P2;PMS_P1;PMS_P2;Temp;Humidity;BMP_temperature;BMP_pressure;BME280_temperature;BME280_humidity;BME280_pressure;Samples;Min_cycle;Max_cycle;Signal;HPM_P1;HPM_P2
2022/09/16 00:01:17;;;;;;;2.08;1.58;;;15.70;99.90;;;;;;5024926;28;20186;-64
2022/09/16 00:03:43;;;;;;;1.25;1.17;;;15.70;99.90;;;;;;5019765;28;20203;-64
2022/09/16 00:06:27;;;;;;;0.65;0.65;;;15.70;99.90;;;;;;5030075;28;20542;-64
2022/09/16 00:09:02;;;;;;;1.33;1.20;;;15.60;99.90;;;;;;5018365;28;20184;-63
2022/09/16 00:11:32;;;;;;;1.23;1.13;;;15.60;99.90;;;;;;5018023;28;20193;-63
2022/09/16 00:13:58;;;;;;;2.20;1.27;;;15.50;99.90;;;;;;5020330;28;20187;-63
2022/09/16 00:16:26;;;;;;;3.35;1.30;;;15.40;99.90;;;;;;5014637;28;20602;-64
2022/09/16 00:18:59;;;;;;;5.20;1.52;;;15.40;99.90;;;;;;5045778;28;20205;-63
2022/09/16 00:21:27;;;;;;;3.90;1.42;;;15.40;99.90;;;;;;5014032;28;20187;-63
2022/09/16 00:23:53;;;;;;;1.95;1.25;;;15.30;99.90;;;;;;5012695;28;20272;-63
2022/09/16 00:26:19;;;;;;;3.13;1.33;;;15.30;99.90;;;;;;5015898;28;20546;-63
2022/09/16 00:28:48;;;;;;;2.63;1.40;;;15.30;99.90;;;;;;5014026;28;20179;-63
2022/09/16 00:31:14;;;;;;;2.60;1.10;;;15.20;99.90;;;;;;5011433;28;20276;-63
2022/09/16 00:33:40;;;;;;;1.75;1.65;;;15.10;99.90;;;;;;5013438;28;20567;-63
2022/09/16 00:36:12;;;;;;;1.50;1.00;;;15.00;99.90;;;;;;5051792;28;20180;-63
2022/09/16 00:38:38;;;;;;;2.28;1.48;;;14.90;99.90;;;;;;5024405;28;20194;-63
2022/09/16 00:41:05;;;;;;;1.88;1.27;;;14.90;99.90;;;;;;5021303;28;20191;-63
2022/09/16 00:43:50;;;;;;;1.02;0.98;;;15.00;99.90;;;;;;5013158;28;20207;-63
2022/09/16 00:46:21;;;;;;;1.48;1.38;;;15.00;99.90;;;;;;5012682;28;20696;-64
2022/09/16 00:48:48;;;;;;;2.25;1.20;;;14.90;99.90;;;;;;5023586;28;20175;-63
2022/09/16 00:51:15;;;;;;;4.05;1.58;;;14.90;99.90;;;;;;5027851;28;20190;-63
2022/09/16 00:53:56;;;;;;;1.35;1.25;;;15.00;99.90;;;;;;5005514;28;20270;-63
2022/09/16 00:56:25;;;;;;;3.72;1.13;;;14.90;99.90;;;;;;5013154;28;20176;-65
2022/09/16 00:59:02;;;;;;;3.50;2.03;;;14.80;99.90;;;;;;5013295;28;20199;-64
2022/09/16 01:01:29;;;;;;;3.10;1.63;;;14.80;99.90;;;;;;5012608;28;20193;-64
2022/09/16 01:04:03;;;;;;;1.02;1.02;;;14.80;99.90;;;;;;5012987;28;20289;-64
2022/09/16 01:06:31;;;;;;;2.72;1.30;;;14.70;99.90;;;;;;5012548;28;20203;-64
2022/09/16 01:08:58;;;;;;;4.65;1.63;;;14.70;99.90;;;;;;5015067;28;20184;-63
2022/09/16 01:11:24;;;;;;;1.67;0.85;;;14.70;99.90;;;;;;5014407;28;20179;-64
2022/09/16 01:13:51;;;;;;;5.28;1.48;;;14.60;99.90;;;;;;5047595;28;20210;-64
2022/09/16 01:16:33;;;;;;;2.25;1.35;;;14.70;99.90;;;;;;5016964;28;20266;-63
2022/09/16 01:19:36;;;;;;;2.30;1.00;;;14.60;99.90;;;;;;5031184;28;20273;-63
2022/09/16 01:22:26;;;;;;;4.93;1.40;;;14.60;99.90;;;;;;5021874;28;20639;-63
2022/09/16 01:24:55;;;;;;;3.22;1.30;;;14.60;99.90;;;;;;5022345;28;20183;-63
2022/09/16 01:27:39;;;;;;;1.67;1.52;;;14.50;99.90;;;;;;5022711;28;20192;-63
2022/09/16 01:30:17;;;;;;;6.60;1.83;;;14.50;99.90;;;;;;5025309;28;20687;-64
2022/09/16 01:32:52;;;;;;;1.17;1.17;;;14.40;99.90;;;;;;5033317;28;20182;-64
2022/09/16 01:35:23;;;;;;;2.38;0.88;;;14.40;99.90;;;;;;5031228;28;20178;-64
2022/09/16 01:38:01;;;;;;;6.63;1.58;;;14.40;99.90;;;;;;5016604;28;20332;-63
2022/09/16 01:40:54;;;;;;;1.63;1.40;;;14.40;99.90;;;;;;5021400;28;20210;-63
2022/09/16 01:43:49;;;;;;;0.93;0.93;;;14.40;99.90;;;;;;5025835;28;20226;-63
2022/09/16 01:46:23;;;;;;;2.03;1.40;;;14.50;99.90;;;;;;5025960;28;20185;-63
2022/09/16 01:48:58;;;;;;;4.93;1.27;;;14.50;99.90;;;;;;5032024;28;20241;-64
2022/09/16 01:51:43;;;;;;;0.85;0.85;;;14.50;99.90;;;;;;5029625;28;20178;-64
2022/09/16 01:54:28;;;;;;;1.08;1.05;;;14.50;99.90;;;;;;5015917;28;20187;-64
2022/09/16 01:57:04;;;;;;;2.15;1.15;;;14.50;99.90;;;;;;5016858;28;20277;-64
2022/09/16 01:59:45;;;;;;;2.88;2.35;;;14.70;99.90;;;;;;5015939;28;20190;-63
2022/09/16 02:02:26;;;;;;;1.45;0.90;;;14.70;99.90;;;;;;5016344;28;20218;-63
2022/09/16 02:04:57;;;;;;;3.47;1.10;;;14.70;99.90;;;;;;5047846;28;20183;-63
2022/09/16 02:07:31;;;;;;;2.58;1.17;;;14.90;99.90;;;;;;5016481;28;20334;-64
2022/09/16 02:10:15;;;;;;;1.25;1.20;;;14.90;99.90;;;;;;5015862;28;20178;-63
2022/09/16 02:12:43;;;;;;;1.20;1.08;;;14.80;99.90;;;;;;5015629;28;20226;-63
2022/09/16 02:15:17;;;;;;;2.90;1.35;;;14.70;99.90;;;;;;5020378;28;20267;-63
2022/09/16 02:17:50;;;;;;;2.70;1.20;;;14.70;99.90;;;;;;5024746;28;20178;-64
2022/09/16 02:20:23;;;;;;;2.67;1.05;;;14.90;99.90;;;;;;5021861;28;20182;-63
2022/09/16 02:23:04;;;;;;;1.65;1.05;;;14.90;99.90;;;;;;5015976;28;20253;-64
2022/09/16 02:25:33;;;;;;;1.05;1.05;;;14.90;99.90;;;;;;5016556;28;20270;-64
2022/09/16 02:28:02;;;;;;;4.25;1.30;;;14.90;99.90;;;;;;5022084;28;20245;-64
2022/09/16 02:30:28;;;;;;;1.45;1.35;;;15.00;99.90;;;;;;5013600;28;20632;-64
2022/09/16 02:32:59;;;;;;;2.55;2.15;;;15.00;99.90;;;;;;5015616;28;20188;-64
2022/09/16 02:35:26;;;;;;;2.15;1.10;;;15.00;99.90;;;;;;5029265;28;20249;-64
2022/09/16 02:38:05;;;;;;;0.95;0.88;;;15.10;99.90;;;;;;5015834;28;20625;-64
2022/09/16 02:40:36;;;;;;;1.40;1.30;;;15.10;99.90;;;;;;5014838;28;20187;-65
2022/09/16 02:43:02;;;;;;;3.00;1.27;;;15.20;99.90;;;;;;5023120;28;20230;-65
2022/09/16 02:45:47;;;;;;;1.35;1.35;;;15.20;99.90;;;;;;5025661;28;20562;-64
2022/09/16 02:48:19;;;;;;;4.72;1.20;;;15.20;99.90;;;;;;5015026;28;20185;-65
2022/09/16 02:50:53;;;;;;;0.75;0.75;;;15.10;99.90;;;;;;5029116;28;20232;-64
2022/09/16 02:53:34;;;;;;;1.85;1.58;;;14.90;99.90;;;;;;5023375;28;20181;-65
2022/09/16 02:56:05;;;;;;;2.65;1.67;;;15.00;99.90;;;;;;5026966;28;20234;-64
2022/09/16 02:58:31;;;;;;;1.33;1.25;;;15.10;99.90;;;;;;5032213;28;20174;-64
2022/09/16 03:00:57;;;;;;;2.08;1.30;;;15.00;99.90;;;;;;5030493;28;20179;-64
2022/09/16 03:03:23;;;;;;;1.17;1.13;;;15.00;99.90;;;;;;5032521;28;20214;-64
2022/09/16 03:06:18;;;;;;;2.35;1.27;;;15.20;99.90;;;;;;5019132;28;20183;-65
2022/09/16 03:08:45;;;;;;;1.13;0.90;;;15.00;99.90;;;;;;5022376;28;20248;-66
2022/09/16 03:11:48;;;;;;;3.55;1.08;;;14.90;99.90;;;;;;5027084;28;20184;-65
2022/09/16 03:14:32;;;;;;;1.08;0.80;;;14.80;99.90;;;;;;5014622;28;20187;-64
2022/09/16 03:17:19;;;;;;;4.47;1.73;;;14.80;99.90;;;;;;5021239;28;20408;-64
2022/09/16 03:20:15;;;;;;;1.25;0.75;;;14.70;99.90;;;;;;5022239;28;20187;-65
2022/09/16 03:22:49;;;;;;;2.47;1.35;;;14.70;99.90;;;;;;5015460;28;20211;-64
2022/09/16 03:25:40;;;;;;;2.03;0.82;;;14.70;99.90;;;;;;5023668;28;20651;-65
2022/09/16 03:28:11;;;;;;;1.55;1.40;;;14.80;99.90;;;;;;5014380;28;20179;-65
2022/09/16 03:30:55;;;;;;;0.88;0.88;;;14.60;99.90;;;;;;5017419;28;20240;-65
2022/09/16 03:33:34;;;;;;;2.22;2.00;;;14.50;99.90;;;;;;5014780;28;20237;-65
2022/09/16 03:36:04;;;;;;;4.03;1.05;;;14.50;99.90;;;;;;5013141;28;20214;-67
2022/09/16 03:38:33;;;;;;;1.40;1.02;;;14.50;99.90;;;;;;5013956;28;20263;-66
2022/09/16 03:41:00;;;;;;;2.60;1.08;;;14.40;99.90;;;;;;5021586;28;20214;-65
2022/09/16 03:43:25;;;;;;;1.27;1.17;;;14.30;99.90;;;;;;5020720;28;20301;-66
2022/09/16 03:45:51;;;;;;;6.57;1.40;;;14.20;99.90;;;;;;5017072;28;20707;-66
2022/09/16 03:48:17;;;;;;;11.55;2.30;;;14.00;99.90;;;;;;5030508;28;20187;-65
2022/09/16 03:50:42;;;;;;;8.70;1.27;;;14.00;99.90;;;;;;5019886;28;20258;-65
2022/09/16 03:53:08;;;;;;;3.67;1.02;;;14.00;99.90;;;;;;5021730;28;20189;-65
2022/09/16 03:55:34;;;;;;;2.58;1.30;;;14.00;99.90;;;;;;5016451;28;20274;-65
2022/09/16 03:57:59;;;;;;;5.55;4.07;;;13.90;99.90;;;;;;5013411;28;20633;-66
2022/09/16 04:00:25;;;;;;;5.03;2.72;;;13.90;99.90;;;;;;5013495;28;20566;-67
2022/09/16 04:02:51;;;;;;;1.17;1.15;;;13.80;99.90;;;;;;5013373;28;20218;-66
2022/09/16 04:05:16;;;;;;;4.55;1.60;;;13.90;99.90;;;;;;5013691;28;20188;-66
2022/09/16 04:07:42;;;;;;;1.08;1.08;;;13.90;99.90;;;;;;5023712;28;20191;-66
2022/09/16 04:10:10;;;;;;;3.05;1.30;;;14.00;99.90;;;;;;5014583;28;20179;-65
2022/09/16 04:12:36;;;;;;;2.33;1.35;;;14.10;99.90;;;;;;5017751;28;20548;-65
2022/09/16 04:15:02;;;;;;;1.27;1.10;;;14.10;99.90;;;;;;5024134;28;20190;-66
2022/09/16 04:17:31;;;;;;;1.92;1.48;;;14.20;99.90;;;;;;5012087;28;20214;-66
2022/09/16 04:19:56;;;;;;;3.10;1.77;;;14.20;99.90;;;;;;5012892;28;20580;-66
2022/09/16 04:22:22;;;;;;;2.25;2.05;;;14.10;99.90;;;;;;5013268;28;20203;-66
2022/09/16 04:24:48;;;;;;;1.58;1.48;;;14.10;99.90;;;;;;5013571;28;20195;-66
2022/09/16 04:27:14;;;;;;;5.32;1.70;;;14.10;99.90;;;;;;5021109;28;20182;-66
2022/09/16 04:29:39;;;;;;;4.25;1.13;;;14.10;99.90;;;;;;5020314;28;20180;-66
2022/09/16 04:32:05;;;;;;;3.30;1.58;;;14.10;99.90;;;;;;5015820;28;20175;-66
2022/09/16 04:34:31;;;;;;;2.63;1.60;;;14.10;99.90;;;;;;5020646;28;20175;-66
2022/09/16 04:36:57;;;;;;;1.58;1.20;;;14.10;99.90;;;;;;5014161;28;20187;-66
2022/09/16 04:39:23;;;;;;;2.08;1.20;;;14.20;99.90;;;;;;5018322;28;20183;-66
2022/09/16 04:41:49;;;;;;;7.53;1.70;;;14.20;99.90;;;;;;5013609;28;20197;-66
2022/09/16 04:44:14;;;;;;;2.30;1.90;;;14.20;99.90;;;;;;5016010;28;20541;-65
2022/09/16 04:46:40;;;;;;;4.40;2.53;;;14.20;99.90;;;;;;5023242;28;20188;-65
2022/09/16 04:49:06;;;;;;;3.42;2.08;;;14.10;99.90;;;;;;5019205;28;20207;-65
2022/09/16 04:51:31;;;;;;;2.53;2.33;;;14.10;99.90;;;;;;5023103;28;20309;-65
2022/09/16 04:53:58;;;;;;;5.93;2.08;;;14.10;99.90;;;;;;5026731;28;20195;-66
2022/09/16 04:56:27;;;;;;;3.67;2.42;;;14.10;99.90;;;;;;5015169;28;20557;-65
2022/09/16 04:58:58;;;;;;;7.63;1.67;;;14.10;99.90;;;;;;5015450;28;20172;-66
2022/09/16 05:01:26;;;;;;;4.47;3.45;;;14.10;99.90;;;;;;5018864;28;20171;-65
2022/09/16 05:03:57;;;;;;;4.50;2.92;;;14.20;99.90;;;;;;5030849;28;20651;-64
2022/09/16 05:06:32;;;;;;;3.72;2.15;;;14.20;99.90;;;;;;5006755;28;20179;-63
2022/09/16 05:08:59;;;;;;;4.00;1.70;;;14.20;99.90;;;;;;5013986;28;20372;-63
2022/09/16 05:11:28;;;;;;;1.92;1.48;;;14.30;99.90;;;;;;5023465;28;20185;-65
2022/09/16 05:13:58;;;;;;;1.42;1.10;;;14.30;99.90;;;;;;5016125;28;20257;-66
2022/09/16 05:16:24;;;;;;;3.38;1.80;;;14.30;99.90;;;;;;5020921;28;20175;-66
2022/09/16 05:18:53;;;;;;;3.63;1.90;;;14.40;99.90;;;;;;5014990;28;20183;-66
2022/09/16 05:21:21;;;;;;;3.70;1.45;;;14.30;99.90;;;;;;5022551;28;20205;-66
2022/09/16 05:23:47;;;;;;;1.67;1.42;;;14.30;99.90;;;;;;5011759;28;20214;-66
2022/09/16 05:26:25;;;;;;;1.45;1.35;;;14.20;99.90;;;;;;5012128;28;20183;-66
2022/09/16 05:28:51;;;;;;;3.00;2.20;;;14.10;99.90;;;;;;5058251;28;20182;-66
2022/09/16 05:31:23;;;;;;;2.78;2.45;;;14.00;99.90;;;;;;5020743;28;20179;-66
2022/09/16 05:33:57;;;;;;;5.88;2.08;;;13.90;99.90;;;;;;5024400;28;20660;-66
2022/09/16 05:36:24;;;;;;;1.80;1.67;;;13.80;99.90;;;;;;5021296;28;20175;-66
2022/09/16 05:38:50;;;;;;;4.28;1.50;;;13.70;99.90;;;;;;5025521;28;20171;-66
2022/09/16 05:41:16;;;;;;;5.30;3.85;;;13.60;99.90;;;;;;5025389;28;20255;-66
2022/09/16 05:43:42;;;;;;;4.40;2.70;;;13.70;99.90;;;;;;5012664;28;20280;-66
2022/09/16 05:46:12;;;;;;;6.38;2.22;;;13.60;99.90;;;;;;5013001;28;20191;-65
2022/09/16 05:48:37;;;;;;;5.60;2.10;;;13.60;99.90;;;;;;5012671;28;20186;-66
2022/09/16 05:51:05;;;;;;;6.35;2.03;;;13.60;99.90;;;;;;5011951;28;20183;-66
2022/09/16 05:53:32;;;;;;;6.32;2.35;;;13.70;99.90;;;;;;5017218;28;20186;-66
2022/09/16 05:56:01;;;;;;;2.83;2.20;;;13.70;99.90;;;;;;5014177;28;20211;-65
2022/09/16 05:58:29;;;;;;;5.40;2.58;;;13.60;99.90;;;;;;5028650;28;20171;-66
2022/09/16 06:00:59;;;;;;;2.03;1.52;;;13.60;99.90;;;;;;5029614;28;20182;-66
2022/09/16 06:03:26;;;;;;;2.70;2.15;;;13.70;99.90;;;;;;5029348;28;20218;-66
2022/09/16 06:06:02;;;;;;;5.45;2.95;;;13.70;99.90;;;;;;5003744;28;20183;-65
2022/09/16 06:08:32;;;;;;;3.53;2.85;;;13.70;99.90;;;;;;5034697;28;20189;-66
2022/09/16 06:11:03;;;;;;;7.25;4.03;;;13.60;99.90;;;;;;5022094;28;20183;-66
2022/09/16 06:13:29;;;;;;;4.72;4.22;;;13.70;99.90;;;;;;5016938;28;20329;-66
2022/09/16 06:15:55;;;;;;;4.82;3.10;;;13.70;99.90;;;;;;5027508;28;20637;-66
2022/09/16 06:18:22;;;;;;;6.63;2.58;;;13.70;99.90;;;;;;5018940;28;20179;-67
2022/09/16 06:20:47;;;;;;;2.30;2.10;;;13.70;99.90;;;;;;5033848;28;20174;-67
2022/09/16 06:23:13;;;;;;;2.08;1.88;;;13.70;99.90;;;;;;5023839;28;20210;-66
2022/09/16 06:25:39;;;;;;;3.03;1.08;;;13.80;99.90;;;;;;5028452;28;20197;-66
2022/09/16 06:28:05;;;;;;;1.30;1.20;;;13.80;99.90;;;;;;5022666;28;20628;-66
2022/09/16 06:30:31;;;;;;;3.30;2.90;;;13.80;99.90;;;;;;5015590;28;20175;-66
2022/09/16 06:32:57;;;;;;;5.88;2.97;;;13.80;99.90;;;;;;5047359;28;20187;-66
2022/09/16 06:35:22;;;;;;;12.40;3.88;;;13.90;99.90;;;;;;5050482;28;20182;-66
2022/09/16 06:37:48;;;;;;;14.43;8.02;;;14.00;99.90;;;;;;5016304;28;20194;-66
2022/09/16 06:40:14;;;;;;;34.10;18.45;;;14.00;99.90;;;;;;5015696;28;20179;-66
2022/09/16 06:42:40;;;;;;;21.45;15.68;;;14.00;99.90;;;;;;5026020;28;20656;-66
2022/09/16 06:45:06;;;;;;;15.65;9.07;;;14.00;99.90;;;;;;5033314;28;20182;-65
2022/09/16 06:47:32;;;;;;;11.75;7.75;;;14.10;99.90;;;;;;5031066;28;20199;-64
2022/09/16 06:50:00;;;;;;;8.18;4.60;;;14.10;99.90;;;;;;5026101;28;20225;-63
2022/09/16 06:52:27;;;;;;;15.93;8.90;;;14.10;99.90;;;;;;5014661;28;20186;-65
2022/09/16 06:54:53;;;;;;;10.80;6.72;;;14.10;99.90;;;;;;5014002;28;20245;-67
2022/09/16 06:57:21;;;;;;;16.50;11.52;;;14.10;99.90;;;;;;5015161;28;20655;-66
2022/09/16 06:59:48;;;;;;;30.92;20.92;;;14.00;99.90;;;;;;5020423;28;20228;-66
2022/09/16 07:02:13;;;;;;;30.40;20.27;;;14.10;99.90;;;;;;5019895;28;20250;-66
2022/09/16 07:04:39;;;;;;;27.80;13.00;;;14.20;99.90;;;;;;5016623;28;20355;-65
2022/09/16 07:07:05;;;;;;;6.88;3.17;;;14.40;99.90;;;;;;5031045;28;20189;-66
2022/09/16 07:09:31;;;;;;;4.55;1.75;;;14.50;99.90;;;;;;5016455;28;20172;-66
2022/09/16 07:11:58;;;;;;;4.78;1.92;;;14.60;99.90;;;;;;5018966;28;20190;-67
2022/09/16 07:14:24;;;;;;;4.18;2.25;;;14.70;99.90;;;;;;5021214;28;20193;-69
2022/09/16 07:16:50;;;;;;;3.72;1.70;;;14.60;99.90;;;;;;5016881;28;20182;-67
2022/09/16 07:19:16;;;;;;;6.03;1.50;;;14.60;99.90;;;;;;5014629;28;20183;-66
2022/09/16 07:21:42;;;;;;;3.55;1.58;;;14.70;99.90;;;;;;5018505;28;20526;-66
2022/09/16 07:24:10;;;;;;;3.88;1.65;;;14.80;99.90;;;;;;5014147;28;20281;-66
2022/09/16 07:26:37;;;;;;;4.38;1.52;;;14.80;99.90;;;;;;5018676;28;20698;-66
2022/09/16 07:29:05;;;;;;;3.38;1.50;;;14.90;99.90;;;;;;5014390;28;20491;-66
2022/09/16 07:31:36;;;;;;;1.60;1.45;;;14.90;99.90;;;;;;5014382;28;20186;-66
2022/09/16 07:34:03;;;;;;;3.80;1.90;;;14.80;99.90;;;;;;5014213;28;20180;-65
2022/09/16 07:36:35;;;;;;;10.70;2.65;;;14.80;99.90;;;;;;5017021;28;20620;-65
2022/09/16 07:39:01;;;;;;;2.17;1.48;;;14.90;99.90;;;;;;5014489;28;20175;-64
2022/09/16 07:41:31;;;;;;;1.45;1.35;;;15.00;99.90;;;;;;5014017;28;20502;-64
2022/09/16 07:43:58;;;;;;;11.60;2.85;;;15.20;99.90;;;;;;5020897;28;20252;-64
2022/09/16 07:46:27;;;;;;;5.78;3.33;;;15.40;99.90;;;;;;5025968;28;20191;-65
2022/09/16 07:48:53;;;;;;;10.20;2.08;;;15.70;99.90;;;;;;5019175;28;20221;-64
2022/09/16 07:51:21;;;;;;;12.60;1.63;;;16.00;99.90;;;;;;5020198;28;20190;-64
2022/09/16 07:53:51;;;;;;;2.33;1.55;;;16.20;99.90;;;;;;5027148;28;20193;-64
2022/09/16 07:56:20;;;;;;;3.17;1.42;;;16.10;99.90;;;;;;5027931;28;20273;-63
2022/09/16 07:58:46;;;;;;;1.48;1.20;;;15.90;99.90;;;;;;5026036;28;20647;-64
2022/09/16 08:01:14;;;;;;;2.47;1.55;;;15.70;99.90;;;;;;5028621;28;20199;-64
2022/09/16 08:03:40;;;;;;;5.43;0.77;;;15.60;99.90;;;;;;5029280;28;20260;-63
2022/09/16 08:06:11;;;;;;;5.65;1.13;;;15.50;99.90;;;;;;5031424;28;20201;-64
2022/09/16 08:08:38;;;;;;;2.05;1.00;;;15.50;99.90;;;;;;5027315;28;20201;-64
2022/09/16 08:11:04;;;;;;;3.58;1.63;;;15.60;99.90;;;;;;4676866;28;9999611;-64
2022/09/16 08:13:32;;;;;;;0.75;0.70;;;15.60;99.90;;;;;;5023552;28;20198;-64
2022/09/16 08:16:09;;;;;;;2.70;2.08;;;15.80;99.90;;;;;;5026937;28;20262;-64
2022/09/16 08:18:35;;;;;;;1.52;0.60;;;16.00;99.90;;;;;;5023589;28;20178;-65
2022/09/16 08:21:22;;;;;;;2.47;1.10;;;16.10;99.90;;;;;;5026895;28;20183;-63
2022/09/16 08:23:49;;;;;;;0.80;0.80;;;16.40;99.90;;;;;;5024667;28;20202;-61
2022/09/16 08:26:16;;;;;;;1.38;1.27;;;16.60;99.90;;;;;;5023603;28;20214;-63
2022/09/16 08:28:43;;;;;;;0.60;0.60;;;16.70;99.90;;;;;;5024882;28;20892;-64
2022/09/16 08:31:09;;;;;;;6.63;1.00;;;16.90;99.90;;;;;;5026476;28;20213;-63
2022/09/16 08:33:38;;;;;;;2.97;1.58;;;16.80;99.90;;;;;;5023980;28;20667;-64
2022/09/16 08:36:10;;;;;;;3.42;1.20;;;16.90;99.90;;;;;;5026022;28;20177;-66
2022/09/16 08:38:36;;;;;;;3.08;1.05;;;16.60;99.90;;;;;;5025065;28;20186;-65
2022/09/16 08:41:07;;;;;;;1.88;0.88;;;16.30;99.90;;;;;;5024383;28;20858;-66
2022/09/16 08:43:46;;;;;;;3.58;1.27;;;16.10;99.90;;;;;;5023220;28;20767;-66
2022/09/16 08:46:37;;;;;;;0.88;0.88;;;15.80;99.90;;;;;;5023712;28;20193;-66
2022/09/16 08:49:06;;;;;;;1.77;1.10;;;15.50;99.90;;;;;;5024359;28;20221;-66
2022/09/16 08:51:31;;;;;;;1.63;1.10;;;15.10;99.90;;;;;;5022562;28;20274;-65
2022/09/16 08:54:05;;;;;;;2.10;1.55;;;14.90;99.90;;;;;;5025526;28;20187;-66
2022/09/16 08:56:34;;;;;;;0.95;0.90;;;14.80;99.90;;;;;;5021651;28;20519;-66
2022/09/16 08:59:03;;;;;;;4.40;1.35;;;14.90;99.90;;;;;;5023632;28;20559;-67
2022/09/16 09:01:40;;;;;;;2.53;1.70;;;15.00;99.90;;;;;;5023606;28;20202;-67
2022/09/16 09:04:05;;;;;;;4.88;1.80;;;15.10;99.90;;;;;;5023141;28;20736;-67
2022/09/16 09:06:43;;;;;;;6.85;2.10;;;15.10;99.90;;;;;;5047047;28;20183;-66
2022/09/16 09:09:30;;;;;;;4.38;1.08;;;15.20;99.90;;;;;;5019407;28;20202;-66
2022/09/16 09:12:23;;;;;;;2.50;1.60;;;15.40;99.90;;;;;;4675101;28;9999962;-66
2022/09/16 09:14:55;;;;;;;0.73;0.70;;;15.50;99.90;;;;;;5021939;28;20640;-65
2022/09/16 09:17:45;;;;;;;2.05;1.10;;;15.40;99.90;;;;;;5014696;28;20236;-67
2022/09/16 09:20:38;;;;;;;0.80;0.80;;;15.40;99.90;;;;;;5023245;28;20171;-66
2022/09/16 09:23:33;;;;;;;1.02;0.75;;;15.40;99.90;;;;;;5012973;28;20664;-65
2022/09/16 09:26:19;;;;;;;1.25;1.00;;;15.50;99.90;;;;;;5017991;28;20191;-65
2022/09/16 09:28:57;;;;;;;5.38;1.02;;;15.60;99.90;;;;;;5013246;28;20175;-68
2022/09/16 09:31:26;;;;;;;7.90;1.52;;;15.80;99.90;;;;;;5017735;28;20193;-66
2022/09/16 09:34:18;;;;;;;6.80;3.03;;;16.00;99.90;;;;;;5019054;28;20539;-66
2022/09/16 09:36:46;;;;;;;5.40;1.83;;;16.30;99.90;;;;;;5029443;28;20212;-65
2022/09/16 09:39:26;;;;;;;6.43;1.48;;;16.60;99.90;;;;;;5022880;28;20632;-65
2022/09/16 09:41:54;;;;;;;7.03;1.70;;;16.70;99.90;;;;;;5023635;28;20183;-65
2022/09/16 09:44:44;;;;;;;4.60;2.30;;;17.00;99.90;;;;;;5016019;28;20521;-63
2022/09/16 09:47:32;;;;;;;2.50;1.40;;;17.00;99.90;;;;;;5016266;28;20190;-63
2022/09/16 09:50:11;;;;;;;1.50;0.80;;;16.80;99.90;;;;;;5019215;28;20215;-65
2022/09/16 09:53:09;;;;;;;1.80;0.77;;;16.50;99.90;;;;;;5020420;28;20565;-63
2022/09/16 09:55:35;;;;;;;0.85;0.45;;;16.70;99.90;;;;;;5021467;28;20167;-63
2022/09/16 09:58:24;;;;;;;1.65;0.60;;;16.80;99.90;;;;;;5018991;28;20179;-64
2022/09/16 10:00:51;;;;;;;1.88;0.60;;;17.20;99.90;;;;;;5016791;28;20568;-65
2022/09/16 10:03:18;;;;;;;3.08;0.73;;;17.50;99.90;;;;;;5014563;28;20203;-64
2022/09/16 10:05:45;;;;;;;0.75;0.70;;;17.70;99.90;;;;;;5021698;28;20183;-64
2022/09/16 10:08:17;;;;;;;3.80;0.88;;;17.60;99.90;;;;;;5027013;28;20178;-63
2022/09/16 10:10:52;;;;;;;1.73;0.40;;;17.60;99.90;;;;;;5015827;28;20632;-63
2022/09/16 10:13:20;;;;;;;0.73;0.40;;;17.80;99.90;;;;;;5015811;28;20198;-64
2022/09/16 10:15:46;;;;;;;0.60;0.40;;;17.80;99.90;;;;;;5015768;28;20570;-64
2022/09/16 10:18:21;;;;;;;2.58;0.60;;;17.70;99.90;;;;;;5016566;28;20201;-64
2022/09/16 10:20:57;;;;;;;0.68;0.68;;;17.50;99.90;;;;;;5021687;28;20175;-63
2022/09/16 10:23:24;;;;;;;2.10;0.60;;;17.60;99.90;;;;;;5016486;28;20203;-64
2022/09/16 10:26:03;;;;;;;0.60;0.38;;;17.40;99.90;;;;;;5030859;28;20641;-63
2022/09/16 10:28:29;;;;;;;0.80;0.40;;;17.10;99.90;;;;;;5023499;28;20187;-65
2022/09/16 10:30:57;;;;;;;0.90;0.50;;;16.70;99.90;;;;;;5013898;28;20275;-64
2022/09/16 10:33:24;;;;;;;2.25;1.23;;;16.60;99.90;;;;;;5031405;28;20262;-64
2022/09/16 10:36:15;;;;;;;4.13;0.93;;;16.40;99.90;;;;;;5020532;28;20171;-63
2022/09/16 10:38:43;;;;;;;1.33;0.70;;;16.10;99.90;;;;;;5017988;28;20209;-64
2022/09/16 10:41:19;;;;;;;1.40;1.00;;;16.10;99.90;;;;;;5023628;28;20488;-64
2022/09/16 10:44:17;;;;;;;2.63;0.90;;;16.20;99.90;;;;;;5019600;28;20253;-64
2022/09/16 10:46:55;;;;;;;2.47;1.90;;;16.30;99.90;;;;;;5024276;28;20190;-64
2022/09/16 10:49:27;;;;;;;3.55;1.02;;;16.40;99.90;;;;;;5027152;28;20182;-64
2022/09/16 10:51:53;;;;;;;2.25;2.00;;;16.50;99.90;;;;;;5024958;28;20167;-64
2022/09/16 10:54:24;;;;;;;3.50;1.20;;;16.70;99.90;;;;;;5015034;28;20273;-64
2022/09/16 10:56:51;;;;;;;2.38;1.27;;;16.90;99.90;;;;;;5021859;28;20181;-63
2022/09/16 10:59:17;;;;;;;1.92;1.50;;;17.00;99.90;;;;;;5026878;28;20506;-63
2022/09/16 11:01:58;;;;;;;1.15;1.15;;;16.60;99.90;;;;;;5020068;28;20258;-63
2022/09/16 11:04:49;;;;;;;2.28;1.20;;;16.70;99.90;;;;;;5028009;28;20200;-63
2022/09/16 11:07:21;;;;;;;2.53;1.15;;;16.70;99.90;;;;;;5010515;28;20199;-64
2022/09/16 11:10:12;;;;;;;1.50;1.30;;;16.70;99.90;;;;;;5018505;28;20647;-66
2022/09/16 11:13:11;;;;;;;2.35;1.30;;;16.60;99.90;;;;;;5016365;28;20203;-65
2022/09/16 11:15:51;;;;;;;7.18;1.42;;;16.30;99.90;;;;;;5014414;28;20240;-66
2022/09/16 11:18:20;;;;;;;3.88;1.60;;;16.10;99.90;;;;;;5015273;28;20266;-65
2022/09/16 11:21:10;;;;;;;1.38;1.00;;;15.70;99.90;;;;;;5023548;28;20182;-65
2022/09/16 11:23:57;;;;;;;4.03;1.23;;;15.40;99.90;;;;;;5031458;28;20210;-65
2022/09/16 11:27:02;;;;;;;4.40;2.72;;;15.30;99.90;;;;;;5022100;28;20267;-65
2022/09/16 11:29:57;;;;;;;3.05;2.42;;;15.30;99.90;;;;;;5003711;28;20554;-64
2022/09/16 11:32:48;;;;;;;1.42;1.30;;;15.30;99.90;;;;;;5028239;28;20190;-65
2022/09/16 11:35:33;;;;;;;4.40;4.00;;;15.50;99.90;;;;;;5018422;28;20188;-65
2022/09/16 11:38:02;;;;;;;4.50;2.22;;;15.70;99.90;;;;;;5027649;28;20182;-65
2022/09/16 11:40:45;;;;;;;1.25;1.25;;;15.80;99.90;;;;;;5028621;28;20227;-65
2022/09/16 11:43:30;;;;;;;4.03;3.63;;;15.80;99.90;;;;;;5022084;28;20541;-65
2022/09/16 11:46:19;;;;;;;3.47;3.17;;;16.00;99.90;;;;;;5014387;28;20183;-65
2022/09/16 11:49:05;;;;;;;2.53;1.92;;;16.30;99.90;;;;;;5013920;28;20196;-65
2022/09/16 11:51:51;;;;;;;2.45;2.25;;;16.60;99.90;;;;;;5020836;28;20259;-65
2022/09/16 11:54:44;;;;;;;2.42;2.22;;;16.90;99.90;;;;;;5017431;28;20187;-65
2022/09/16 11:57:17;;;;;;;7.40;4.40;;;17.20;99.90;;;;;;5013511;28;20230;-65
2022/09/16 12:00:04;;;;;;;4.72;2.60;;;17.10;99.90;;;;;;5013556;28;20211;-65
2022/09/16 12:03:03;;;;;;;3.50;1.45;;;17.00;99.90;;;;;;5013875;28;20644;-64
2022/09/16 12:05:52;;;;;;;4.75;1.30;;;16.70;99.90;;;;;;5015433;28;20630;-64
2022/09/16 12:08:46;;;;;;;1.58;0.93;;;16.70;99.90;;;;;;5013045;28;20273;-65
2022/09/16 12:11:34;;;;;;;1.30;0.70;;;16.60;99.90;;;;;;5013732;28;20266;-65
2022/09/16 12:14:28;;;;;;;8.13;1.50;;;16.50;99.90;;;;;;5021993;28;20194;-64
2022/09/16 12:17:28;;;;;;;2.42;2.22;;;16.20;99.90;;;;;;5015197;28;20179;-65
2022/09/16 12:19:57;;;;;;;7.25;3.67;;;15.70;99.90;;;;;;5006703;28;20265;-65
2022/09/16 12:22:37;;;;;;;2.80;1.17;;;15.50;99.90;;;;;;5013617;28;20175;-65
2022/09/16 12:25:10;;;;;;;1.85;1.02;;;15.20;99.90;;;;;;5014026;28;20214;-65
2022/09/16 12:27:51;;;;;;;1.02;0.73;;;14.70;99.90;;;;;;5024858;28;20262;-65
2022/09/16 12:30:22;;;;;;;0.90;0.90;;;14.50;99.90;;;;;;5021475;28;20187;-65
2022/09/16 12:32:57;;;;;;;3.83;1.05;;;14.40;99.90;;;;;;5013675;28;20620;-65
2022/09/16 12:35:37;;;;;;;0.93;0.77;;;14.30;99.90;;;;;;5016906;28;20175;-65
2022/09/16 12:38:03;;;;;;;0.82;0.73;;;14.10;99.90;;;;;;5017318;28;20183;-66
2022/09/16 12:40:48;;;;;;;2.83;1.88;;;14.30;99.90;;;;;;5019198;28;20266;-65
2022/09/16 12:43:32;;;;;;;1.45;1.00;;;14.20;99.90;;;;;;5016525;28;20222;-65
2022/09/16 12:46:04;;;;;;;1.05;0.73;;;14.40;99.90;;;;;;5018096;28;20195;-65
2022/09/16 12:49:01;;;;;;;5.00;0.65;;;14.50;99.90;;;;;;5013367;28;20202;-65
2022/09/16 12:51:53;;;;;;;0.70;0.70;;;14.40;99.90;;;;;;5013680;28;20186;-65
2022/09/16 12:54:47;;;;;;;0.85;0.77;;;14.50;99.90;;;;;;5057846;28;20218;-64
2022/09/16 12:57:43;;;;;;;0.70;0.70;;;14.60;99.90;;;;;;5015411;28;20206;-65
2022/09/16 13:00:14;;;;;;;0.60;0.60;;;14.80;99.90;;;;;;5024788;28;20183;-65
2022/09/16 13:02:53;;;;;;;2.08;1.08;;;14.90;99.90;;;;;;5013771;28;20203;-65
2022/09/16 13:05:29;;;;;;;1.65;1.30;;;15.10;99.90;;;;;;5024205;28;20484;-65
2022/09/16 13:07:59;;;;;;;1.70;0.90;;;15.30;99.90;;;;;;5023612;28;20182;-65
2022/09/16 13:10:37;;;;;;;1.98;0.95;;;15.50;99.90;;;;;;5027462;28;20669;-64
2022/09/16 13:13:04;;;;;;;2.17;0.77;;;15.80;99.90;;;;;;5020335;28;20275;-64
2022/09/16 13:15:35;;;;;;;0.70;0.70;;;16.20;99.90;;;;;;5017293;28;20179;-64
2022/09/16 13:18:25;;;;;;;1.45;0.60;;;16.40;99.90;;;;;;5016796;28;20261;-64